createdAt,value
2019-03-29T00:00:34.002Z,8.52
2019-03-29T00:03:02.407Z,8.49
2019-03-29T00:05:30.796Z,8.50
2019-03-29T00:07:59.190Z,8.51
2019-03-29T00:10:27.575Z,8.54
2019-03-29T00:12:57.026Z,8.52
2019-03-29T00:15:25.439Z,8.48
2019-03-29T00:17:53.872Z,8.47
2019-03-29T00:20:22.261Z,8.44
2019-03-29T00:22:50.650Z,8.41
2019-03-29T00:25:19.045Z,8.39
2019-03-29T00:27:47.440Z,8.35
2019-03-29T00:30:15.830Z,8.32
2019-03-29T00:32:44.229Z,8.30
2019-03-29T00:35:12.962Z,8.27
2019-03-29T00:37:52.863Z,8.23
2019-03-29T00:40:11.642Z,8.18
2019-03-29T00:42:40.027Z,8.15
2019-03-29T00:45:08.509Z,8.12
2019-03-29T00:47:36.917Z,8.09
2019-03-29T00:50:07.339Z,8.06
2019-03-29T00:52:35.695Z,8.03
2019-03-29T00:55:04.855Z,7.99
2019-03-29T00:57:33.273Z,7.97
2019-03-29T01:00:01.686Z,7.91
2019-03-29T01:02:30.075Z,7.86
2019-03-29T01:04:58.506Z,7.83
2019-03-29T01:07:26.932Z,7.83
2019-03-29T01:09:55.322Z,7.85
2019-03-29T01:12:23.703Z,7.82
2019-03-29T01:14:52.119Z,7.83
2019-03-29T01:17:20.520Z,7.84
2019-03-29T01:19:48.924Z,7.85
2019-03-29T01:22:17.328Z,7.84
2019-03-29T01:24:45.756Z,7.82
2019-03-29T01:27:14.141Z,7.84
2019-03-29T01:29:42.554Z,7.83
2019-03-29T01:32:10.953Z,7.75
2019-03-29T01:34:39.442Z,7.76
2019-03-29T01:37:07.920Z,7.74
2019-03-29T01:39:36.414Z,7.75
2019-03-29T01:42:04.979Z,7.74
2019-03-29T01:44:33.434Z,7.71
2019-03-29T01:47:01.892Z,7.72
2019-03-29T01:49:30.398Z,7.72
2019-03-29T01:51:58.852Z,7.73
2019-03-29T01:54:27.284Z,7.73
2019-03-29T01:56:55.748Z,7.72
2019-03-29T01:59:24.208Z,7.74
2019-03-29T02:01:52.650Z,7.75
2019-03-29T02:04:21.089Z,7.77
2019-03-29T02:06:49.535Z,7.79
2019-03-29T02:09:17.978Z,7.82
2019-03-29T02:11:46.446Z,7.84
2019-03-29T02:14:14.892Z,7.85
2019-03-29T02:16:43.281Z,7.84
2019-03-29T02:19:11.692Z,7.83
2019-03-29T02:21:40.093Z,7.83
2019-03-29T02:24:08.500Z,7.84
2019-03-29T02:26:36.891Z,7.86
2019-03-29T02:29:05.282Z,7.85
2019-03-29T02:31:33.678Z,7.85
2019-03-29T02:34:02.065Z,7.88
2019-03-29T02:36:30.458Z,7.86
2019-03-29T02:38:59.394Z,7.86
2019-03-29T02:41:27.917Z,7.89
2019-03-29T02:43:56.313Z,7.89
2019-03-29T02:46:25.890Z,7.91
2019-03-29T02:48:54.547Z,7.91
2019-03-29T02:51:22.942Z,7.92
2019-03-29T02:53:51.333Z,7.90
2019-03-29T02:56:19.724Z,7.90
2019-03-29T02:58:48.111Z,7.92
2019-03-29T03:01:16.504Z,7.93
2019-03-29T03:03:44.890Z,7.93
2019-03-29T03:06:13.279Z,7.94
2019-03-29T03:08:41.665Z,7.95
2019-03-29T03:11:10.071Z,7.94
2019-03-29T03:13:38.440Z,7.94
2019-03-29T03:16:06.826Z,7.92
2019-03-29T03:18:35.219Z,7.93
2019-03-29T03:21:03.686Z,7.92
2019-03-29T03:23:32.073Z,7.93
2019-03-29T03:26:00.471Z,7.30
2019-03-29T03:28:28.857Z,7.94
2019-03-29T03:30:57.256Z,7.93
2019-03-29T03:33:25.660Z,7.90
2019-03-29T03:35:54.034Z,7.88
2019-03-29T03:38:22.424Z,7.88
2019-03-29T03:40:50.815Z,7.86
2019-03-29T03:43:19.216Z,7.86
2019-03-29T03:45:47.584Z,7.82
2019-03-29T03:48:15.987Z,7.78
2019-03-29T03:50:45.109Z,7.76
2019-03-29T03:53:13.493Z,7.77
2019-03-29T03:55:42.778Z,7.75
2019-03-29T03:58:11.936Z,7.73
2019-03-29T04:00:51.929Z,7.71
2019-03-29T04:03:20.692Z,7.68
2019-03-29T04:05:50.158Z,7.64
2019-03-29T04:08:19.486Z,7.61
2019-03-29T04:10:47.908Z,7.57
2019-03-29T04:13:16.293Z,7.57
2019-03-29T04:15:44.752Z,7.56
2019-03-29T04:18:15.756Z,7.56
2019-03-29T04:20:43.278Z,7.52
2019-03-29T04:23:11.773Z,7.12
2019-03-29T04:25:40.156Z,7.52
2019-03-29T04:28:08.548Z,7.50
2019-03-29T04:30:36.960Z,7.47
2019-03-29T04:33:05.355Z,7.43
2019-03-29T04:35:33.718Z,7.45
2019-03-29T04:38:02.149Z,7.43
2019-03-29T04:40:32.036Z,7.43
2019-03-29T04:43:00.447Z,7.41
2019-03-29T04:45:28.846Z,7.41
2019-03-29T04:47:57.286Z,7.35
2019-03-29T04:50:25.667Z,7.30
2019-03-29T04:52:55.028Z,7.25
2019-03-29T04:55:23.461Z,7.24
2019-03-29T04:57:51.854Z,7.25
2019-03-29T05:00:20.309Z,7.22
2019-03-29T05:02:48.691Z,7.18
2019-03-29T05:05:17.180Z,7.17
2019-03-29T05:07:45.587Z,7.14
2019-03-29T05:10:20.952Z,7.15
2019-03-29T05:12:44.205Z,7.15
2019-03-29T05:15:12.956Z,7.14
2019-03-29T05:17:41.416Z,7.11
2019-03-29T05:20:09.959Z,7.14
2019-03-29T05:22:38.359Z,7.21
2019-03-29T05:25:06.823Z,7.25
2019-03-29T05:27:35.255Z,7.31
2019-03-29T05:30:04.475Z,7.34
2019-03-29T05:32:32.953Z,7.36
2019-03-29T05:35:01.360Z,7.38
2019-03-29T05:37:29.789Z,7.18
2019-03-29T05:39:58.172Z,7.34
2019-03-29T05:42:26.647Z,7.36
2019-03-29T05:44:55.085Z,7.37
2019-03-29T05:47:23.505Z,7.41
2019-03-29T05:49:51.904Z,7.44
2019-03-29T05:52:20.305Z,7.49
2019-03-29T05:54:48.686Z,7.52
2019-03-29T05:57:17.077Z,7.56
2019-03-29T05:59:45.467Z,7.62
2019-03-29T06:02:13.936Z,7.66
2019-03-29T06:04:42.376Z,7.77
2019-03-29T06:07:10.767Z,7.76
2019-03-29T06:09:39.155Z,7.83
2019-03-29T06:12:07.537Z,7.92
2019-03-29T06:14:35.928Z,7.98
2019-03-29T06:17:04.328Z,8.16
2019-03-29T06:19:33.175Z,8.37
2019-03-29T06:22:01.564Z,8.51
2019-03-29T06:24:29.978Z,8.63
2019-03-29T06:26:58.363Z,8.69
2019-03-29T06:29:26.758Z,8.72
2019-03-29T06:31:55.162Z,8.79
2019-03-29T06:34:23.714Z,8.83
2019-03-29T06:36:53.321Z,8.95
2019-03-29T06:39:22.660Z,8.75
2019-03-29T06:41:51.047Z,8.71
2019-03-29T06:44:19.451Z,8.67
2019-03-29T06:46:47.836Z,8.55
2019-03-29T06:49:16.307Z,8.53
2019-03-29T06:51:44.727Z,8.45
2019-03-29T06:54:13.092Z,8.39
2019-03-29T06:56:41.631Z,8.39
2019-03-29T06:59:10.095Z,8.32
2019-03-29T07:01:38.775Z,8.31
2019-03-29T07:04:07.183Z,8.31
2019-03-29T07:06:35.571Z,8.29
2019-03-29T07:09:05.651Z,8.31
2019-03-29T07:11:34.041Z,8.39
2019-03-29T07:14:02.440Z,8.45
2019-03-29T07:16:30.830Z,8.44
2019-03-29T07:18:59.232Z,8.48
2019-03-29T07:21:27.617Z,8.54
2019-03-29T07:23:56.017Z,8.62
2019-03-29T07:26:24.407Z,8.66
2019-03-29T07:28:52.799Z,8.72
2019-03-29T07:31:21.196Z,8.74
2019-03-29T07:33:49.587Z,8.77
2019-03-29T07:36:17.983Z,8.78
2019-03-29T07:38:46.376Z,8.83
2019-03-29T07:41:14.761Z,8.87
2019-03-29T07:43:43.141Z,8.92
2019-03-29T07:46:11.544Z,8.93
2019-03-29T07:48:40.460Z,8.96
2019-03-29T07:51:08.942Z,8.96
2019-03-29T07:53:37.328Z,8.96
2019-03-29T07:56:05.712Z,8.98
2019-03-29T07:58:34.301Z,9.06
2019-03-29T08:01:02.669Z,9.11
2019-03-29T08:03:31.050Z,9.16
2019-03-29T08:05:59.434Z,9.18
2019-03-29T08:08:32.297Z,9.26
2019-03-29T08:10:59.140Z,9.32
2019-03-29T08:13:27.687Z,9.31
2019-03-29T08:15:56.059Z,9.40
2019-03-29T08:18:24.446Z,9.51
2019-03-29T08:20:52.825Z,9.58
2019-03-29T08:23:21.216Z,9.66
2019-03-29T08:25:49.610Z,9.70
2019-03-29T08:28:17.996Z,9.79
2019-03-29T08:30:46.388Z,9.88
2019-03-29T08:33:14.778Z,9.75
2019-03-29T08:35:43.199Z,9.86
2019-03-29T08:38:11.582Z,9.88
2019-03-29T08:40:39.979Z,9.90
2019-03-29T08:43:08.376Z,9.97
2019-03-29T08:45:36.777Z,10.07
2019-03-29T08:48:06.882Z,10.05
2019-03-29T08:50:35.324Z,10.16
2019-03-29T08:53:03.780Z,10.21
2019-03-29T08:55:44.998Z,10.25
2019-03-29T08:58:02.489Z,10.28
2019-03-29T09:00:32.187Z,10.32
2019-03-29T09:03:00.854Z,10.41
2019-03-29T09:05:29.267Z,10.50
2019-03-29T09:07:57.801Z,10.53
2019-03-29T09:10:27.340Z,10.48
2019-03-29T09:12:55.809Z,10.51
2019-03-29T09:15:24.268Z,10.49
2019-03-29T09:17:52.688Z,10.56
2019-03-29T09:20:21.162Z,10.61
2019-03-29T09:22:49.592Z,10.58
2019-03-29T09:25:20.876Z,10.56
2019-03-29T09:27:48.194Z,10.50
2019-03-29T09:30:16.700Z,10.50
2019-03-29T09:32:45.100Z,10.61
2019-03-29T09:35:13.618Z,10.92
2019-03-29T09:37:42.000Z,10.96
2019-03-29T09:40:13.753Z,10.94
2019-03-29T09:42:40.808Z,10.93
2019-03-29T09:45:09.299Z,11.04
2019-03-29T09:47:40.623Z,11.15
2019-03-29T09:50:10.397Z,11.19
2019-03-29T09:52:38.514Z,11.23
2019-03-29T09:55:07.567Z,11.24
2019-03-29T09:57:38.131Z,11.20
2019-03-29T10:00:19.094Z,11.24
2019-03-29T10:02:38.997Z,11.31
2019-03-29T10:05:07.658Z,11.25
2019-03-29T10:07:36.043Z,11.31
2019-03-29T10:10:05.585Z,11.31
2019-03-29T10:12:43.330Z,11.29
2019-03-29T10:15:05.673Z,11.41
2019-03-29T10:17:34.020Z,11.38
2019-03-29T10:20:02.475Z,11.46
2019-03-29T10:22:30.875Z,11.35
2019-03-29T10:25:02.126Z,11.39
2019-03-29T10:27:29.398Z,11.59
2019-03-29T10:29:57.832Z,11.54
2019-03-29T10:32:26.303Z,11.59
2019-03-29T10:34:54.687Z,11.64
2019-03-29T10:37:23.079Z,11.58
2019-03-29T10:39:51.469Z,11.55
2019-03-29T10:42:19.917Z,11.57
2019-03-29T10:44:49.588Z,11.62
2019-03-29T10:47:17.995Z,11.67
2019-03-29T10:49:46.406Z,11.71
2019-03-29T10:52:14.829Z,11.72
2019-03-29T10:54:43.246Z,11.76
2019-03-29T10:57:11.659Z,11.77
2019-03-29T10:59:40.072Z,11.77
2019-03-29T11:02:08.554Z,11.85
2019-03-29T11:04:36.975Z,11.87
2019-03-29T11:07:05.444Z,11.97
2019-03-29T11:09:36.873Z,12.01
2019-03-29T11:12:03.956Z,12.02
2019-03-29T11:14:32.352Z,12.06
2019-03-29T11:17:00.820Z,12.07
2019-03-29T11:19:29.226Z,12.14
2019-03-29T11:21:57.621Z,12.19
2019-03-29T11:24:26.032Z,12.28
2019-03-29T11:26:54.442Z,12.30
2019-03-29T11:29:22.855Z,12.30
2019-03-29T11:31:51.281Z,12.29
2019-03-29T11:34:21.089Z,12.29
2019-03-29T11:36:52.670Z,12.29
2019-03-29T11:39:19.939Z,12.41
2019-03-29T11:41:48.326Z,12.45
2019-03-29T11:44:16.735Z,12.47
2019-03-29T11:46:45.108Z,12.48
2019-03-29T11:49:13.499Z,12.65
2019-03-29T11:51:41.981Z,12.61
2019-03-29T11:54:10.408Z,12.59
2019-03-29T11:56:38.794Z,12.71
2019-03-29T11:59:07.215Z,12.73
2019-03-29T12:01:35.645Z,12.70
2019-03-29T12:04:04.034Z,12.80
2019-03-29T12:06:32.426Z,12.83
2019-03-29T12:09:00.909Z,12.87
2019-03-29T12:11:29.304Z,12.85
2019-03-29T12:13:57.706Z,12.79
2019-03-29T12:16:26.085Z,12.84
2019-03-29T12:18:54.478Z,12.97
2019-03-29T12:21:22.942Z,12.98
2019-03-29T12:23:51.340Z,12.93
2019-03-29T12:26:19.732Z,12.93
2019-03-29T12:28:48.213Z,12.95
2019-03-29T12:31:16.734Z,12.95
2019-03-29T12:33:45.060Z,13.01
2019-03-29T12:36:13.492Z,12.99
2019-03-29T12:38:41.885Z,13.02
2019-03-29T12:41:10.289Z,13.03
2019-03-29T12:43:38.676Z,13.11
2019-03-29T12:46:07.066Z,13.11
2019-03-29T12:48:35.462Z,13.11
2019-03-29T12:51:03.914Z,13.16
2019-03-29T12:53:32.304Z,13.21
2019-03-29T12:56:00.687Z,13.13
2019-03-29T12:58:29.125Z,13.17
2019-03-29T13:00:58.561Z,13.33
2019-03-29T13:03:26.962Z,13.34
2019-03-29T13:05:55.355Z,13.32
2019-03-29T13:08:23.742Z,13.34
2019-03-29T13:10:52.548Z,13.36
2019-03-29T13:13:20.947Z,13.44
2019-03-29T13:15:49.343Z,13.46
2019-03-29T13:18:17.739Z,13.50
2019-03-29T13:20:46.204Z,13.52
2019-03-29T13:23:14.583Z,13.47
2019-03-29T13:25:42.979Z,13.55
2019-03-29T13:28:11.373Z,13.53
2019-03-29T13:30:39.755Z,13.58
2019-03-29T13:33:08.147Z,13.48
2019-03-29T13:35:36.544Z,13.61
2019-03-29T13:38:05.008Z,13.66
2019-03-29T13:40:33.405Z,13.73
2019-03-29T13:43:01.806Z,13.72
2019-03-29T13:45:30.346Z,13.69
2019-03-29T13:47:58.810Z,13.68
2019-03-29T13:50:27.300Z,13.78
2019-03-29T13:52:55.677Z,13.70
2019-03-29T13:55:24.073Z,13.81
2019-03-29T13:57:52.507Z,13.74
2019-03-29T14:00:20.893Z,13.71
2019-03-29T14:02:54.441Z,13.76
2019-03-29T14:05:23.823Z,13.79
2019-03-29T14:07:53.745Z,13.79
2019-03-29T14:10:22.135Z,13.88
2019-03-29T14:12:50.531Z,13.85
2019-03-29T14:15:21.018Z,13.94
2019-03-29T14:17:49.328Z,14.03
2019-03-29T14:20:25.171Z,14.02
2019-03-29T14:22:58.506Z,13.95
2019-03-29T14:25:27.080Z,13.96
2019-03-29T14:27:59.712Z,13.99
2019-03-29T14:30:28.236Z,14.01
2019-03-29T14:33:00.950Z,14.09
2019-03-29T14:35:33.702Z,14.04
2019-03-29T14:38:05.363Z,14.10
2019-03-29T14:40:37.874Z,14.09
2019-03-29T14:43:10.461Z,14.19
2019-03-29T14:45:40.168Z,14.16
2019-03-29T14:48:12.716Z,14.09
2019-03-29T14:50:41.217Z,14.10
2019-03-29T14:53:12.771Z,14.06
2019-03-29T14:55:43.514Z,14.04
2019-03-29T14:58:16.160Z,14.07
2019-03-29T15:00:48.414Z,14.08
2019-03-29T15:03:15.484Z,14.10
2019-03-29T15:05:45.611Z,14.14
2019-03-29T15:08:16.414Z,14.16
2019-03-29T15:10:49.857Z,14.15
2019-03-29T15:13:22.004Z,14.14
2019-03-29T15:15:53.357Z,14.10
2019-03-29T15:18:20.646Z,14.10
2019-03-29T15:20:53.801Z,14.11
2019-03-29T15:23:19.163Z,14.11
2019-03-29T15:25:47.552Z,14.14
2019-03-29T15:28:15.939Z,14.07
2019-03-29T15:30:44.335Z,14.06
2019-03-29T15:33:12.724Z,14.07
2019-03-29T15:35:41.105Z,14.07
2019-03-29T15:38:09.562Z,14.15
2019-03-29T15:40:38.014Z,14.20
2019-03-29T15:43:06.420Z,14.15
2019-03-29T15:45:34.804Z,14.22
2019-03-29T15:48:03.199Z,14.15
2019-03-29T15:50:31.594Z,14.11
2019-03-29T15:52:59.984Z,14.15
2019-03-29T15:55:28.378Z,14.22
2019-03-29T15:57:56.767Z,14.20
2019-03-29T16:00:25.165Z,14.14
2019-03-29T16:02:53.561Z,14.09
2019-03-29T16:05:21.940Z,14.04
2019-03-29T16:07:50.332Z,14.01
2019-03-29T16:10:18.724Z,14.03
2019-03-29T16:12:47.123Z,14.01
2019-03-29T16:15:15.522Z,13.98
2019-03-29T16:17:43.924Z,13.98
2019-03-29T16:20:12.458Z,14.01
2019-03-29T16:22:40.857Z,14.07
2019-03-29T16:25:09.394Z,14.04
2019-03-29T16:27:37.845Z,14.00
2019-03-29T16:30:07.163Z,13.97
2019-03-29T16:32:36.313Z,13.95
2019-03-29T16:35:06.846Z,13.90
2019-03-29T16:37:35.233Z,13.87
2019-03-29T16:40:05.923Z,13.82
2019-03-29T16:42:34.314Z,13.80
2019-03-29T16:45:02.708Z,13.77
2019-03-29T16:47:31.119Z,13.77
2019-03-29T16:49:59.520Z,13.75
2019-03-29T16:52:27.894Z,13.73
2019-03-29T16:54:56.306Z,13.71
2019-03-29T16:57:24.697Z,13.69
2019-03-29T16:59:53.085Z,13.64
2019-03-29T17:02:21.471Z,13.62
2019-03-29T17:04:49.932Z,13.56
2019-03-29T17:07:18.348Z,13.55
2019-03-29T17:09:46.746Z,13.49
2019-03-29T17:12:15.189Z,13.42
2019-03-29T17:14:43.604Z,13.37
2019-03-29T17:17:11.960Z,13.31
2019-03-29T17:19:40.359Z,13.23
2019-03-29T17:22:08.752Z,13.18
2019-03-29T17:24:37.144Z,13.12
2019-03-29T17:27:05.533Z,13.05
2019-03-29T17:29:33.971Z,12.99
2019-03-29T17:32:02.355Z,12.93
2019-03-29T17:34:30.739Z,12.86
2019-03-29T17:37:01.676Z,12.83
2019-03-29T17:39:30.072Z,12.77
2019-03-29T17:41:58.468Z,12.71
2019-03-29T17:44:26.862Z,12.65
2019-03-29T17:46:55.247Z,12.61
2019-03-29T17:49:23.635Z,12.53
2019-03-29T17:51:52.022Z,12.47
2019-03-29T17:54:20.445Z,12.40
2019-03-29T17:56:48.854Z,12.36
2019-03-29T17:59:17.250Z,12.30
2019-03-29T18:01:45.642Z,12.25
2019-03-29T18:04:14.029Z,12.20
2019-03-29T18:06:42.418Z,12.15
2019-03-29T18:09:10.815Z,12.13
2019-03-29T18:11:39.210Z,12.11
2019-03-29T18:14:07.631Z,12.05
2019-03-29T18:16:36.022Z,12.01
2019-03-29T18:19:04.417Z,11.95
2019-03-29T18:21:32.814Z,11.91
2019-03-29T18:24:01.210Z,11.84
2019-03-29T18:26:29.601Z,11.76
2019-03-29T18:28:58.006Z,11.71
2019-03-29T18:31:26.416Z,11.65
2019-03-29T18:33:54.958Z,11.63
2019-03-29T18:36:23.400Z,11.61
2019-03-29T18:38:51.969Z,11.55
2019-03-29T18:41:20.362Z,11.51
2019-03-29T18:43:48.764Z,11.45
2019-03-29T18:46:17.219Z,11.38
2019-03-29T18:48:45.629Z,11.34
2019-03-29T18:51:14.072Z,11.28
2019-03-29T18:53:42.476Z,11.24
2019-03-29T18:56:10.855Z,11.19
2019-03-29T18:58:39.330Z,11.13
2019-03-29T19:01:07.652Z,11.11
2019-03-29T19:03:36.053Z,11.10
2019-03-29T19:06:04.481Z,11.12
2019-03-29T19:08:32.885Z,11.10
2019-03-29T19:11:01.286Z,11.06
2019-03-29T19:13:29.679Z,11.01
2019-03-29T19:15:58.069Z,10.96
2019-03-29T19:18:26.461Z,10.92
2019-03-29T19:20:54.866Z,10.85
2019-03-29T19:23:23.263Z,10.79
2019-03-29T19:25:51.666Z,10.74
2019-03-29T19:28:20.072Z,10.68
2019-03-29T19:30:48.453Z,10.64
2019-03-29T19:33:16.846Z,10.60
2019-03-29T19:35:45.245Z,10.57
2019-03-29T19:38:13.634Z,10.52
2019-03-29T19:40:42.034Z,10.46
2019-03-29T19:43:10.501Z,10.43
2019-03-29T19:45:38.954Z,10.36
2019-03-29T19:48:07.357Z,10.28
2019-03-29T19:50:35.753Z,10.22
2019-03-29T19:53:04.197Z,10.16
2019-03-29T19:55:32.557Z,10.09
2019-03-29T19:58:01.008Z,10.04
2019-03-29T20:00:32.455Z,9.96
2019-03-29T20:03:00.996Z,9.91
2019-03-29T20:05:29.498Z,9.85
2019-03-29T20:07:58.057Z,9.84
2019-03-29T20:10:26.598Z,9.80
2019-03-29T20:12:54.972Z,9.78
2019-03-29T20:15:23.513Z,9.73
2019-03-29T20:17:52.168Z,9.68
2019-03-29T20:20:24.966Z,9.65
2019-03-29T20:22:54.887Z,9.60
2019-03-29T20:25:24.177Z,9.53
2019-03-29T20:27:52.819Z,9.46
2019-03-29T20:30:21.457Z,9.41
2019-03-29T20:32:49.839Z,9.36
2019-03-29T20:35:18.249Z,9.31
2019-03-29T20:37:46.642Z,9.25
2019-03-29T20:40:15.275Z,9.23
2019-03-29T20:42:43.679Z,9.22
2019-03-29T20:45:12.136Z,9.22
2019-03-29T20:47:42.272Z,9.20
2019-03-29T20:50:11.072Z,9.11
2019-03-29T20:52:39.529Z,9.00
2019-03-29T20:55:08.397Z,8.93
2019-03-29T20:57:37.615Z,8.88
2019-03-29T21:00:07.963Z,8.85
2019-03-29T21:02:36.362Z,8.82
2019-03-29T21:05:06.621Z,8.76
2019-03-29T21:07:35.107Z,8.73
2019-03-29T21:10:04.809Z,8.63
2019-03-29T21:12:33.211Z,8.69
2019-03-29T21:15:01.601Z,8.68
2019-03-29T21:17:29.987Z,8.63
2019-03-29T21:19:58.379Z,8.54
2019-03-29T21:22:26.777Z,8.44
2019-03-29T21:24:55.178Z,8.35
2019-03-29T21:27:23.581Z,8.27
2019-03-29T21:29:51.967Z,8.22
2019-03-29T21:32:20.356Z,8.19
2019-03-29T21:34:48.739Z,8.16
2019-03-29T21:37:17.126Z,8.01
2019-03-29T21:39:45.513Z,8.03
2019-03-29T21:42:20.823Z,8.00
2019-03-29T21:44:49.217Z,7.89
2019-03-29T21:47:17.675Z,7.96
2019-03-29T21:49:46.137Z,7.98
2019-03-29T21:52:14.461Z,7.99
2019-03-29T21:54:42.853Z,7.97
2019-03-29T21:57:11.403Z,7.91
2019-03-29T21:59:39.781Z,7.84
2019-03-29T22:02:08.177Z,7.77
2019-03-29T22:04:37.566Z,7.71
2019-03-29T22:07:05.976Z,7.64
2019-03-29T22:09:37.072Z,7.62
2019-03-29T22:12:04.556Z,7.58
2019-03-29T22:14:32.975Z,7.53
2019-03-29T22:17:01.395Z,7.48
2019-03-29T22:19:30.785Z,7.42
2019-03-29T22:21:59.188Z,7.40
2019-03-29T22:24:27.583Z,7.36
2019-03-29T22:26:55.964Z,7.35
2019-03-29T22:29:24.367Z,7.32
2019-03-29T22:31:52.769Z,7.27
2019-03-29T22:34:21.158Z,7.22
2019-03-29T22:36:49.543Z,7.21
2019-03-29T22:39:17.934Z,7.14
2019-03-29T22:41:46.340Z,7.06
2019-03-29T22:44:14.736Z,6.99
2019-03-29T22:46:43.137Z,6.91
2019-03-29T22:49:11.614Z,6.86
2019-03-29T22:51:40.013Z,6.86
2019-03-29T22:54:08.400Z,6.84
2019-03-29T22:56:36.791Z,6.74
2019-03-29T22:59:05.240Z,6.64
2019-03-29T23:01:36.689Z,6.61
2019-03-29T23:04:05.155Z,6.60
2019-03-29T23:06:33.592Z,6.53
2019-03-29T23:09:01.975Z,6.48
2019-03-29T23:11:30.384Z,6.48
2019-03-29T23:13:58.770Z,6.45
2019-03-29T23:16:30.241Z,6.41
2019-03-29T23:19:06.251Z,6.39
2019-03-29T23:21:27.408Z,6.38
2019-03-29T23:23:55.799Z,6.37
2019-03-29T23:26:24.187Z,6.37
2019-03-29T23:28:52.578Z,6.37
2019-03-29T23:31:20.963Z,6.31
2019-03-29T23:33:49.358Z,6.27
2019-03-29T23:36:17.744Z,6.26
2019-03-29T23:38:46.138Z,6.13
2019-03-29T23:41:14.524Z,6.21
2019-03-29T23:43:42.924Z,6.13
2019-03-29T23:46:11.304Z,6.09
2019-03-29T23:48:39.700Z,6.08
2019-03-29T23:51:08.093Z,6.05
2019-03-29T23:53:36.487Z,6.03
2019-03-29T23:56:04.947Z,6.03
2019-03-29T23:58:34.580Z,6.02
